Time;durP1;ratioP1;P1;durP2;ratioP2;P2;SDS_P1;SDS_P2;PMS_P1;PMS_P2;Temp;Humidity;BMP_temperature;BMP_pressure;BME280_temperature;BME280_humidity;BME280_pressure;Samples;Min_cycle;Max_cycle;Signal;HPM_P1;HPM_P2
2021/01/30 00:00:59;;;;;;;;;;;;;;;;;;5005747;28;1890;-67
2021/01/30 00:03:25;;;;;;;;;;;;;;;;;;5005463;28;1644;-67
2021/01/30 00:05:50;;;;;;;;;;;;;;;;;;5006404;28;1485;-67
2021/01/30 00:08:16;;;;;;;;;;;;;;;;;;5007753;28;831;-67
2021/01/30 00:10:42;;;;;;;;;;;;;;;;;;5008861;28;1397;-68
2021/01/30 00:13:08;;;;;;;;;;;;;;;;;;5007258;28;1638;-67
2021/01/30 00:15:34;;;;;;;;;;;;;;;;;;5007521;28;902;-67
2021/01/30 00:18:00;;;;;;;;;;;;;;;;;;5006711;28;1633;-67
2021/01/30 00:20:27;;;;;;;;;;;;;;;;;;5006883;28;1898;-67
2021/01/30 00:22:53;;;;;;;;;;;;;;;;;;5006245;28;1581;-67
2021/01/30 00:25:22;;;;;;;;;;;;;;;;;;5006919;28;1686;-68
2021/01/30 00:27:47;;;;;;;;;;;;;;;;;;5006998;28;1572;-67
2021/01/30 00:30:14;;;;;;;;;;;;;;;;;;5004957;28;1544;-67
2021/01/30 00:32:39;;;;;;;;;;;;;;;;;;4996027;28;1790;-67
2021/01/30 00:35:05;;;;;;;;;;;;;;;;;;5006169;28;1458;-68
2021/01/30 00:37:30;;;;;;;;;;;;;;;;;;5005548;28;1607;-67
2021/01/30 00:39:55;;;;;;;;;;;;;;;;;;5004228;28;1886;-67
2021/01/30 00:42:23;;;;;;;;;;;;;;;;;;5005747;28;1422;-67
2021/01/30 00:44:49;;;;;;;;;;;;;;;;;;5004924;28;1568;-67
2021/01/30 00:47:15;;;;;;;;;;;;;;;;;;5005809;28;1513;-68
2021/01/30 00:49:41;;;;;;;;;;;;;;;;;;5005077;28;1460;-67
2021/01/30 00:52:07;;;;;;;;;;;;;;;;;;5005274;28;1492;-67
2021/01/30 00:54:32;;;;;;;;;;;;;;;;;;5003728;28;1611;-67
2021/01/30 00:56:57;;;;;;;;;;;;;;;;;;5006553;28;1094;-67
2021/01/30 00:59:23;;;;;;;;;;;;;;;;;;5006524;28;1890;-67
2021/01/30 01:01:50;;;;;;;;;;;;;;;;;;5007911;28;1196;-67
2021/01/30 01:04:15;;;;;;;;;;;;;;;;;;5006841;28;1636;-67
2021/01/30 01:06:40;;;;;;;;;;;;;;;;;;5008361;28;938;-67
2021/01/30 01:09:07;;;;;;;;;;;;;;;;;;5006889;28;1093;-67
2021/01/30 01:11:34;;;;;;;;;;;;;;;;;;5006256;28;1446;-66
2021/01/30 01:13:59;;;;;;;;;;;;;;;;;;5006470;28;827;-67
2021/01/30 01:16:24;;;;;;;;;;;;;;;;;;5006606;28;1157;-67
2021/01/30 01:18:50;;;;;;;;;;;;;;;;;;5007512;28;995;-66
2021/01/30 01:21:15;;;;;;;;;;;;;;;;;;5004612;28;1902;-67
2021/01/30 01:23:42;;;;;;;;;;;;;;;;;;5006291;28;1572;-67
2021/01/30 01:26:07;;;;;;;;;;;;;;;;;;5006340;28;1454;-67
2021/01/30 01:28:33;;;;;;;;;;;;;;;;;;5004934;28;1546;-67
2021/01/30 01:30:58;;;;;;;;;;;;;;;;;;5005262;28;1635;-67
2021/01/30 01:33:23;;;;;;;;;;;;;;;;;;5003812;28;1426;-67
2021/01/30 01:35:49;;;;;;;;;;;;;;;;;;5005120;28;1695;-67
2021/01/30 01:38:14;;;;;;;;;;;;;;;;;;5006123;28;866;-67
2021/01/30 01:40:40;;;;;;;;;;;;;;;;;;5006126;28;1902;-67
2021/01/30 01:43:06;;;;;;;;;;;;;;;;;;5005769;28;1501;-67
2021/01/30 01:45:31;;;;;;;;;;;;;;;;;;5004678;28;1465;-65
2021/01/30 01:47:59;;;;;;;;;;;;;;;;;;5004658;28;1579;-67
2021/01/30 01:50:25;;;;;;;;;;;;;;;;;;5004178;28;1625;-67
2021/01/30 01:52:51;;;;;;;;;;;;;;;;;;5007814;28;1576;-67
2021/01/30 01:55:19;;;;;;;;;;;;;;;;;;5009190;28;1360;-67
2021/01/30 01:57:51;;;;;;;;;;;;;;;;;;5008767;28;1699;-67
2021/01/30 02:00:17;;;;;;;;;;;;;;;;;;5009297;28;1926;-67
2021/01/30 02:02:46;;;;;;;;;;;;;;;;;;5008340;28;1505;-68
2021/01/30 02:05:15;;;;;;;;;;;;;;;;;;5010708;28;831;-68
2021/01/30 02:07:42;;;;;;;;;;;;;;;;;;5010115;28;1628;-67
2021/01/30 02:10:09;;;;;;;;;;;;;;;;;;5009636;28;1406;-67
2021/01/30 02:12:34;;;;;;;;;;;;;;;;;;5008107;28;1585;-67
2021/01/30 02:15:00;;;;;;;;;;;;;;;;;;5007999;28;1563;-67
2021/01/30 02:17:31;;;;;;;;;;;;;;;;;;5007393;28;1438;-67
2021/01/30 02:20:13;;;;;;;;;;;;;;;;;;5007238;28;1906;-67
2021/01/30 02:22:58;;;;;;;;;;;;;;;;;;5006602;28;1576;-67
2021/01/30 02:25:49;;;;;;;;;;;;;;;;;;4995401;28;1399;-66
2021/01/30 02:28:33;;;;;;;;;;;;;;;;;;5006319;28;1589;-67
2021/01/30 02:31:15;;;;;;;;;;;;;;;;;;5008170;28;1638;-66
2021/01/30 02:33:40;;;;;;;;;;;;;;;;;;5006745;28;1446;-66
2021/01/30 02:36:24;;;;;;;;;;;;;;;;;;4995193;28;1473;-67
2021/01/30 02:39:08;;;;;;;;;;;;;;;;;;5003427;28;1431;-67
2021/01/30 02:41:35;;;;;;;;;;;;;;;;;;5006937;28;1453;-67
2021/01/30 02:44:02;;;;;;;;;;;;;;;;;;4992526;28;1366;-67
2021/01/30 02:46:32;;;;;;;;;;;;;;;;;;5020348;28;1564;-67
2021/01/30 02:49:04;;;;;;;;;;;;;;;;;;4992451;28;1378;-67
2021/01/30 02:51:31;;;;;;;;;;;;;;;;;;5007136;28;1579;-67
2021/01/30 02:53:59;;;;;;;;;;;;;;;;;;5002613;28;1573;-67
2021/01/30 02:56:24;;;;;;;;;;;;;;;;;;4997423;28;1410;-67
2021/01/30 02:59:03;;;;;;;;;;;;;;;;;;4989077;28;1545;-67
2021/01/30 03:01:29;;;;;;;;;;;;;;;;;;5003440;28;1439;-67
2021/01/30 03:04:00;;;;;;;;;;;;;;;;;;4995869;28;1751;-66
2021/01/30 03:06:28;;;;;;;;;;;;;;;;;;5003005;28;1461;-67
2021/01/30 03:09:07;;;;;;;;;;;;;;;;;;5007097;28;1527;-67
2021/01/30 03:11:39;;;;;;;;;;;;;;;;;;5003633;28;1441;-67
2021/01/30 03:14:10;;;;;;;;;;;;;;;;;;5001832;28;1457;-67
2021/01/30 03:16:38;;;;;;;;;;;;;;;;;;4991713;28;1628;-66
2021/01/30 03:19:07;;;;;;;;;;;;;;;;;;4992974;28;2166;-67
2021/01/30 03:21:33;;;;;;;;;;;;;;;;;;4996694;28;1628;-67
2021/01/30 03:24:01;;;;;;;;;;;;;;;;;;4995566;28;1442;-66
2021/01/30 03:26:27;;;;;;;;;;;;;;;;;;5007338;28;1385;-67
2021/01/30 03:28:54;;;;;;;;;;;;;;;;;;4993023;28;1457;-66
2021/01/30 03:31:20;;;;;;;;;;;;;;;;;;5023383;28;1271;-66
2021/01/30 03:33:45;;;;;;;;;;;;;;;;;;4998348;28;1367;-66
2021/01/30 03:36:10;;;;;;;;;;;;;;;;;;5003728;28;1466;-67
2021/01/30 03:38:36;;;;;;;;;;;;;;;;;;4996561;28;1575;-66
2021/01/30 03:41:01;;;;;;;;;;;;;;;;;;5007281;28;1971;-67
2021/01/30 03:43:26;;;;;;;;;;;;;;;;;;4991704;28;1397;-67
2021/01/30 03:45:52;;;;;;;;;;;;;;;;;;5005405;28;1552;-66
2021/01/30 03:48:17;;;;;;;;;;;;;;;;;;5003925;28;2237;-67
2021/01/30 03:50:43;;;;;;;;;;;;;;;;;;4988859;28;1425;-68
2021/01/30 03:53:08;;;;;;;;;;;;;;;;;;4997642;28;1465;-66
2021/01/30 03:55:34;;;;;;;;;;;;;;;;;;5004580;28;1549;-66
2021/01/30 03:57:59;;;;;;;;;;;;;;;;;;4997216;28;1580;-66
2021/01/30 04:00:25;;;;;;;;;;;;;;;;;;4998521;28;1906;-66
2021/01/30 04:02:51;;;;;;;;;;;;;;;;;;4993839;28;1406;-66
2021/01/30 04:05:23;;;;;;;;;;;;;;;;;;4997610;28;1184;-66
2021/01/30 04:07:49;;;;;;;;;;;;;;;;;;5003090;28;1408;-66
2021/01/30 04:10:18;;;;;;;;;;;;;;;;;;5003785;28;1480;-66
2021/01/30 04:12:44;;;;;;;;;;;;;;;;;;5004396;28;1457;-66
2021/01/30 04:15:14;;;;;;;;;;;;;;;;;;4997375;28;1467;-66
2021/01/30 04:17:40;;;;;;;;;;;;;;;;;;5001669;28;1476;-66
2021/01/30 04:20:05;;;;;;;;;;;;;;;;;;4988301;28;1910;-66
2021/01/30 04:22:30;;;;;;;;;;;;;;;;;;4990083;28;1441;-66
2021/01/30 04:24:56;;;;;;;;;;;;;;;;;;4998453;28;1411;-66
2021/01/30 04:27:21;;;;;;;;;;;;;;;;;;4998858;28;1403;-65
2021/01/30 04:29:46;;;;;;;;;;;;;;;;;;4996422;28;1618;-66
2021/01/30 04:32:12;;;;;;;;;;;;;;;;;;5017364;28;1623;-67
2021/01/30 04:34:37;;;;;;;;;;;;;;;;;;4994809;28;1605;-65
2021/01/30 04:37:04;;;;;;;;;;;;;;;;;;5005165;28;1603;-65
2021/01/30 04:39:29;;;;;;;;;;;;;;;;;;4995752;28;1973;-65
2021/01/30 04:41:54;;;;;;;;;;;;;;;;;;5001743;28;1481;-66
2021/01/30 04:44:42;;;;;;;;;;;;;;;;;;5006262;28;1812;-66
2021/01/30 04:47:26;;;;;;;;;;;;;;;;;;5000859;28;1438;-66
2021/01/30 04:50:01;;;;;;;;;;;;;;;;;;5001444;28;1474;-66
2021/01/30 04:52:32;;;;;;;;;;;;;;;;;;4993204;28;1442;-66
2021/01/30 04:54:57;;;;;;;;;;;;;;;;;;5002377;28;1500;-66
2021/01/30 04:57:23;;;;;;;;;;;;;;;;;;4993644;28;1716;-66
2021/01/30 04:59:48;;;;;;;;;;;;;;;;;;5001743;28;1964;-66
2021/01/30 05:02:13;;;;;;;;;;;;;;;;;;5001996;28;1529;-67
2021/01/30 05:04:41;;;;;;;;;;;;;;;;;;4996028;28;1300;-66
2021/01/30 05:07:13;;;;;;;;;;;;;;;;;;5003866;28;1594;-66
2021/01/30 05:09:47;;;;;;;;;;;;;;;;;;5006997;28;1458;-66
2021/01/30 05:12:17;;;;;;;;;;;;;;;;;;4999663;28;1419;-67
2021/01/30 05:14:52;;;;;;;;;;;;;;;;;;4998072;28;1489;-67
2021/01/30 05:17:20;;;;;;;;;;;;;;;;;;5005001;28;1492;-66
2021/01/30 05:19:49;;;;;;;;;;;;;;;;;;4986112;28;1910;-66
2021/01/30 05:22:15;;;;;;;;;;;;;;;;;;5000067;28;1549;-66
2021/01/30 05:24:44;;;;;;;;;;;;;;;;;;5001953;28;1473;-67
2021/01/30 05:27:12;;;;;;;;;;;;;;;;;;5000944;28;1527;-66
2021/01/30 05:29:41;;;;;;;;;;;;;;;;;;4995203;28;1547;-67
2021/01/30 05:32:10;;;;;;;;;;;;;;;;;;4991020;28;1474;-67
2021/01/30 05:34:48;;;;;;;;;;;;;;;;;;4986493;28;1495;-67
2021/01/30 05:37:26;;;;;;;;;;;;;;;;;;4986998;28;1406;-67
2021/01/30 05:40:18;;;;;;;;;;;;;;;;;;4996795;28;1964;-67
2021/01/30 05:43:01;;;;;;;;;;;;;;;;;;4991068;28;1583;-68
2021/01/30 05:45:36;;;;;;;;;;;;;;;;;;5003150;28;1548;-66
2021/01/30 05:48:01;;;;;;;;;;;;;;;;;;4993840;28;1402;-67
2021/01/30 05:50:32;;;;;;;;;;;;;;;;;;4985361;28;1458;-67
2021/01/30 05:52:58;;;;;;;;;;;;;;;;;;5001147;28;1508;-67
2021/01/30 05:55:26;;;;;;;;;;;;;;;;;;4996772;28;1402;-68
2021/01/30 05:57:51;;;;;;;;;;;;;;;;;;4989100;28;1457;-67
2021/01/30 06:00:19;;;;;;;;;;;;;;;;;;5002800;28;1889;-67
2021/01/30 06:02:59;;;;;;;;;;;;;;;;;;4985394;28;1361;-67
2021/01/30 06:05:29;;;;;;;;;;;;;;;;;;4986437;28;926;-67
2021/01/30 06:07:55;;;;;;;;;;;;;;;;;;4987334;28;966;-67
2021/01/30 06:10:31;;;;;;;;;;;;;;;;;;4987404;28;1422;-67
2021/01/30 06:13:06;;;;;;;;;;;;;;;;;;4999273;28;1719;-67
2021/01/30 06:15:34;;;;;;;;;;;;;;;;;;5000796;28;1437;-67
2021/01/30 06:18:13;;;;;;;;;;;;;;;;;;4993374;28;1341;-67
2021/01/30 06:20:39;;;;;;;;;;;;;;;;;;4991469;28;1934;-67
2021/01/30 06:23:04;;;;;;;;;;;;;;;;;;5004361;28;1661;-67
2021/01/30 06:25:31;;;;;;;;;;;;;;;;;;5000427;28;1487;-66
2021/01/30 06:28:00;;;;;;;;;;;;;;;;;;5000301;28;1595;-66
2021/01/30 06:30:37;;;;;;;;;;;;;;;;;;5000435;28;1519;-68
2021/01/30 06:33:17;;;;;;;;;;;;;;;;;;4997207;28;1367;-67
2021/01/30 06:35:42;;;;;;;;;;;;;;;;;;4997590;28;1406;-69
2021/01/30 06:38:19;;;;;;;;;;;;;;;;;;4992745;28;2085;-68
2021/01/30 06:40:56;;;;;;;;;;;;;;;;;;5001670;28;1965;-68
2021/01/30 06:43:24;;;;;;;;;;;;;;;;;;5000734;28;1547;-68
2021/01/30 06:45:50;;;;;;;;;;;;;;;;;;4992656;28;1541;-68
2021/01/30 06:48:27;;;;;;;;;;;;;;;;;;4992269;28;1453;-69
2021/01/30 06:50:52;;;;;;;;;;;;;;;;;;5006656;28;1552;-68
2021/01/30 06:53:20;;;;;;;;;;;;;;;;;;4996461;28;1441;-68
2021/01/30 06:55:46;;;;;;;;;;;;;;;;;;4989520;28;1557;-68
2021/01/30 06:58:18;;;;;;;;;;;;;;;;;;5007092;28;1441;-68
2021/01/30 07:00:44;;;;;;;;;;;;;;;;;;5003007;28;1960;-68
2021/01/30 07:03:10;;;;;;;;;;;;;;;;;;4991072;28;1455;-68
2021/01/30 07:05:46;;;;;;;;;;;;;;;;;;5003715;28;1373;-68
2021/01/30 07:08:30;;;;;;;;;;;;;;;;;;4992982;28;1408;-69
2021/01/30 07:10:55;;;;;;;;;;;;;;;;;;5007950;28;1560;-68
2021/01/30 07:13:27;;;;;;;;;;;;;;;;;;4992371;28;1571;-68
2021/01/30 07:16:15;;;;;;;;;;;;;;;;;;4989441;28;982;-68
2021/01/30 07:18:59;;;;;;;;;;;;;;;;;;4989527;28;831;-66
2021/01/30 07:21:25;;;;;;;;;;;;;;;;;;4988901;28;1907;-68
2021/01/30 07:24:06;;;;;;;;;;;;;;;;;;4999572;28;1633;-68
2021/01/30 07:26:53;;;;;;;;;;;;;;;;;;5007725;28;1553;-68
2021/01/30 07:29:37;;;;;;;;;;;;;;;;;;5001845;28;1406;-68
2021/01/30 07:32:05;;;;;;;;;;;;;;;;;;5012749;28;1426;-68
2021/01/30 07:34:34;;;;;;;;;;;;;;;;;;5006378;28;1497;-68
2021/01/30 07:37:07;;;;;;;;;;;;;;;;;;5001888;28;1632;-68
2021/01/30 07:39:43;;;;;;;;;;;;;;;;;;4988810;28;1981;-68
2021/01/30 07:42:13;;;;;;;;;;;;;;;;;;5012962;28;1427;-68
2021/01/30 07:44:58;;;;;;;;;;;;;;;;;;4989606;28;1614;-68
2021/01/30 07:47:26;;;;;;;;;;;;;;;;;;5005265;28;1609;-69
2021/01/30 07:49:58;;;;;;;;;;;;;;;;;;4990728;28;1605;-67
2021/01/30 07:52:25;;;;;;;;;;;;;;;;;;4995719;28;1660;-67
2021/01/30 07:54:53;;;;;;;;;;;;;;;;;;5001097;28;1503;-66
2021/01/30 07:57:57;;;;;;;;;;;;;;;;;;4996238;28;1723;-65
2021/01/30 08:00:52;;;;;;;;;;;;;;;;;;4954031;28;1894;-65
2021/01/30 08:03:23;;;;;;;;;;;;;;;;;;4996870;28;1396;-65
2021/01/30 08:05:58;;;;;;;;;;;;;;;;;;5004582;28;1652;-65
2021/01/30 08:08:26;;;;;;;;;;;;;;;;;;5002955;28;1582;-65
2021/01/30 08:11:05;;;;;;;;;;;;;;;;;;4998234;28;1624;-65
2021/01/30 08:13:40;;;;;;;;;;;;;;;;;;4987244;28;1513;-65
2021/01/30 08:16:12;;;;;;;;;;;;;;;;;;4997422;28;1430;-66
2021/01/30 08:18:38;;;;;;;;;;;;;;;;;;5002821;28;1390;-66
2021/01/30 08:21:25;;;;;;;;;;;;;;;;;;5001259;28;1918;-65
2021/01/30 08:24:08;;;;;;;;;;;;;;;;;;4998986;28;1609;-65
2021/01/30 08:26:36;;;;;;;;;;;;;;;;;;5007128;28;1504;-66
2021/01/30 08:29:13;;;;;;;;;;;;;;;;;;5012824;28;1623;-65
2021/01/30 08:31:46;;;;;;;;;;;;;;;;;;4999683;28;1552;-65
2021/01/30 08:34:18;;;;;;;;;;;;;;;;;;4992119;28;1434;-67
2021/01/30 08:36:44;;;;;;;;;;;;;;;;;;4998812;28;1486;-66
2021/01/30 08:39:18;;;;;;;;;;;;;;;;;;4999721;28;1477;-66
2021/01/30 08:41:52;;;;;;;;;;;;;;;;;;5013077;28;1499;-66
2021/01/30 08:44:29;;;;;;;;;;;;;;;;;;5004984;28;1316;-66
2021/01/30 08:47:09;;;;;;;;;;;;;;;;;;4997455;28;1739;-66
2021/01/30 08:49:35;;;;;;;;;;;;;;;;;;4992526;28;1255;-65
2021/01/30 08:52:12;;;;;;;;;;;;;;;;;;4997398;28;1489;-66
2021/01/30 08:54:39;;;;;;;;;;;;;;;;;;4998334;28;1603;-66
2021/01/30 08:57:24;;;;;;;;;;;;;;;;;;4993824;28;1537;-66
2021/01/30 08:59:52;;;;;;;;;;;;;;;;;;4985818;28;1910;-65
2021/01/30 09:02:27;;;;;;;;;;;;;;;;;;4995414;28;1735;-66
2021/01/30 09:05:12;;;;;;;;;;;;;;;;;;5001659;28;1853;-65
2021/01/30 09:07:43;;;;;;;;;;;;;;;;;;4986743;28;1608;-66
2021/01/30 09:10:21;;;;;;;;;;;;;;;;;;4998637;28;1544;-66
2021/01/30 09:13:04;;;;;;;;;;;;;;;;;;4993423;28;1563;-66
2021/01/30 09:15:42;;;;;;;;;;;;;;;;;;4994321;28;1457;-66
2021/01/30 09:18:21;;;;;;;;;;;;;;;;;;5000004;28;1297;-67
2021/01/30 09:20:58;;;;;;;;;;;;;;;;;;5000404;28;2191;-65
2021/01/30 09:23:37;;;;;;;;;;;;;;;;;;5000543;28;1637;-67
2021/01/30 09:26:02;;;;;;;;;;;;;;;;;;4996567;28;1390;-65
2021/01/30 09:28:30;;;;;;;;;;;;;;;;;;5000865;28;1595;-66
2021/01/30 09:30:58;;;;;;;;;;;;;;;;;;4988523;28;1531;-65
2021/01/30 09:33:25;;;;;;;;;;;;;;;;;;5003594;28;1535;-66
2021/01/30 09:35:54;;;;;;;;;;;;;;;;;;5001973;28;1453;-65
2021/01/30 09:38:23;;;;;;;;;;;;;;;;;;5003935;28;1613;-65
2021/01/30 09:40:48;;;;;;;;;;;;;;;;;;5005051;28;1985;-66
2021/01/30 09:43:14;;;;;;;;;;;;;;;;;;5005371;28;879;-66
2021/01/30 09:45:47;;;;;;;;;;;;;;;;;;5008226;28;924;-65
2021/01/30 09:48:13;;;;;;;;;;;;;;;;;;5005854;28;1477;-68
2021/01/30 09:50:48;;;;;;;;;;;;;;;;;;4986631;28;1651;-66
2021/01/30 09:53:20;;;;;;;;;;;;;;;;;;4988358;28;1579;-67
2021/01/30 09:55:45;;;;;;;;;;;;;;;;;;5003940;28;1627;-67
2021/01/30 09:58:12;;;;;;;;;;;;;;;;;;4998006;28;1775;-66
2021/01/30 10:00:39;;;;;;;;;;;;;;;;;;4989169;28;1886;-66
2021/01/30 10:03:23;;;;;;;;;;;;;;;;;;4999911;28;1839;-67
2021/01/30 10:05:50;;;;;;;;;;;;;;;;;;4993654;28;1633;-67
2021/01/30 10:08:27;;;;;;;;;;;;;;;;;;4997037;28;1446;-65
2021/01/30 10:11:10;;;;;;;;;;;;;;;;;;5003888;28;1559;-66
2021/01/30 10:13:38;;;;;;;;;;;;;;;;;;5002293;28;1339;-64
2021/01/30 10:16:08;;;;;;;;;;;;;;;;;;4989629;28;859;-65
2021/01/30 10:18:35;;;;;;;;;;;;;;;;;;4989045;28;855;-65
2021/01/30 10:21:02;;;;;;;;;;;;;;;;;;5006931;28;1975;-66
2021/01/30 10:23:27;;;;;;;;;;;;;;;;;;5021548;28;1242;-65
2021/01/30 10:26:12;;;;;;;;;;;;;;;;;;5008843;28;1080;-65
2021/01/30 10:28:46;;;;;;;;;;;;;;;;;;5004824;28;1545;-65
2021/01/30 10:31:13;;;;;;;;;;;;;;;;;;5004935;28;1433;-68
2021/01/30 10:33:43;;;;;;;;;;;;;;;;;;5009872;28;1692;-67
2021/01/30 10:36:09;;;;;;;;;;;;;;;;;;5006094;28;1365;-65
2021/01/30 10:38:37;;;;;;;;;;;;;;;;;;5004341;28;1417;-66
2021/01/30 10:41:04;;;;;;;;;;;;;;;;;;5001281;28;1926;-67
2021/01/30 10:43:39;;;;;;;;;;;;;;;;;;5006425;28;1638;-66
2021/01/30 10:46:13;;;;;;;;;;;;;;;;;;4994231;28;1568;-67
2021/01/30 10:48:39;;;;;;;;;;;;;;;;;;5001610;28;1783;-67
2021/01/30 10:51:09;;;;;;;;;;;;;;;;;;4999653;28;1524;-66
2021/01/30 10:53:38;;;;;;;;;;;;;;;;;;4989224;28;1602;-67
2021/01/30 10:56:21;;;;;;;;;;;;;;;;;;4988348;28;1243;-66
2021/01/30 10:58:55;;;;;;;;;;;;;;;;;;4995986;28;1418;-66
2021/01/30 11:01:20;;;;;;;;;;;;;;;;;;5028658;28;1890;-66
2021/01/30 11:03:46;;;;;;;;;;;;;;;;;;5016726;28;1445;-66
2021/01/30 11:06:29;;;;;;;;;;;;;;;;;;4998054;28;1460;-66
2021/01/30 11:08:56;;;;;;;;;;;;;;;;;;5002241;28;1436;-65
2021/01/30 11:11:31;;;;;;;;;;;;;;;;;;5004738;28;1294;-66
2021/01/30 11:13:58;;;;;;;;;;;;;;;;;;4987035;28;1633;-66
2021/01/30 11:16:32;;;;;;;;;;;;;;;;;;4989373;28;875;-66
2021/01/30 11:18:58;;;;;;;;;;;;;;;;;;5003464;28;1428;-67
2021/01/30 11:21:36;;;;;;;;;;;;;;;;;;5000395;28;2007;-66
2021/01/30 11:24:15;;;;;;;;;;;;;;;;;;5027980;28;851;-66
2021/01/30 11:26:40;;;;;;;;;;;;;;;;;;5027384;28;1504;-67
2021/01/30 11:29:26;;;;;;;;;;;;;;;;;;4991694;28;1553;-66
2021/01/30 11:31:51;;;;;;;;;;;;;;;;;;5006915;28;1363;-66
2021/01/30 11:34:17;;;;;;;;;;;;;;;;;;5005323;28;1472;-67
2021/01/30 11:36:45;;;;;;;;;;;;;;;;;;5003093;28;1587;-68
2021/01/30 11:39:10;;;;;;;;;;;;;;;;;;4990865;28;1497;-65
2021/01/30 11:41:36;;;;;;;;;;;;;;;;;;5012268;28;1871;-65
2021/01/30 11:44:01;;;;;;;;;;;;;;;;;;5015076;28;1513;-65
2021/01/30 11:46:26;;;;;;;;;;;;;;;;;;5000211;28;1572;-65
2021/01/30 11:48:52;;;;;;;;;;;;;;;;;;5004912;28;1345;-65
2021/01/30 11:51:25;;;;;;;;;;;;;;;;;;4989132;28;1466;-65
2021/01/30 11:53:50;;;;;;;;;;;;;;;;;;4995941;28;1362;-64
2021/01/30 11:56:16;;;;;;;;;;;;;;;;;;5002209;28;1739;-65
2021/01/30 11:58:41;;;;;;;;;;;;;;;;;;4996893;28;868;-65
2021/01/30 12:01:08;;;;;;;;;;;;;;;;;;5015651;28;1902;-64
2021/01/30 12:03:33;;;;;;;;;;;;;;;;;;4988624;28;1655;-64
2021/01/30 12:05:59;;;;;;;;;;;;;;;;;;4993220;28;1599;-64
2021/01/30 12:08:25;;;;;;;;;;;;;;;;;;5007357;28;1188;-65
2021/01/30 12:10:51;;;;;;;;;;;;;;;;;;5005971;28;1104;-64
2021/01/30 12:13:17;;;;;;;;;;;;;;;;;;4989846;28;1603;-65
2021/01/30 12:15:42;;;;;;;;;;;;;;;;;;4998355;28;1525;-67
2021/01/30 12:18:09;;;;;;;;;;;;;;;;;;5005650;28;1518;-66
2021/01/30 12:20:35;;;;;;;;;;;;;;;;;;5005831;28;1913;-65
2021/01/30 12:23:01;;;;;;;;;;;;;;;;;;4996532;28;1504;-64
2021/01/30 12:25:26;;;;;;;;;;;;;;;;;;4998891;28;1492;-65
2021/01/30 12:27:53;;;;;;;;;;;;;;;;;;4996407;28;1375;-64
2021/01/30 12:30:20;;;;;;;;;;;;;;;;;;4999118;28;1817;-65
2021/01/30 12:32:45;;;;;;;;;;;;;;;;;;5003812;28;1557;-65
2021/01/30 12:35:14;;;;;;;;;;;;;;;;;;5000479;28;1430;-65
2021/01/30 12:37:41;;;;;;;;;;;;;;;;;;5003092;28;1626;-64
2021/01/30 12:40:07;;;;;;;;;;;;;;;;;;5001404;28;2016;-64
2021/01/30 12:42:33;;;;;;;;;;;;;;;;;;5002290;28;1389;-64
2021/01/30 12:44:58;;;;;;;;;;;;;;;;;;5003854;28;1628;-64
2021/01/30 12:47:25;;;;;;;;;;;;;;;;;;5000975;28;1404;-65
2021/01/30 12:49:51;;;;;;;;;;;;;;;;;;4990837;28;1446;-65
2021/01/30 12:52:16;;;;;;;;;;;;;;;;;;4996357;28;1001;-64
2021/01/30 12:54:42;;;;;;;;;;;;;;;;;;5006202;28;1642;-66
2021/01/30 12:57:07;;;;;;;;;;;;;;;;;;5006341;28;1274;-65
2021/01/30 12:59:34;;;;;;;;;;;;;;;;;;5000958;28;1980;-65
2021/01/30 13:02:01;;;;;;;;;;;;;;;;;;5004448;28;1520;-65
2021/01/30 13:04:28;;;;;;;;;;;;;;;;;;5004404;28;1229;-65
2021/01/30 13:06:55;;;;;;;;;;;;;;;;;;5000323;28;1459;-64
2021/01/30 13:09:22;;;;;;;;;;;;;;;;;;5006639;28;1093;-66
2021/01/30 13:11:49;;;;;;;;;;;;;;;;;;5005594;28;1220;-68
2021/01/30 13:14:16;;;;;;;;;;;;;;;;;;5003710;28;1811;-66
2021/01/30 13:16:46;;;;;;;;;;;;;;;;;;4998350;28;1629;-66
2021/01/30 13:19:13;;;;;;;;;;;;;;;;;;4997682;28;1773;-66
2021/01/30 13:21:44;;;;;;;;;;;;;;;;;;5001874;28;2016;-66
2021/01/30 13:24:10;;;;;;;;;;;;;;;;;;5002555;28;1464;-65
2021/01/30 13:26:39;;;;;;;;;;;;;;;;;;4999612;28;2355;-65
2021/01/30 13:29:06;;;;;;;;;;;;;;;;;;5003693;28;1564;-66
2021/01/30 13:31:45;;;;;;;;;;;;;;;;;;5003997;28;2043;-65
2021/01/30 13:34:15;;;;;;;;;;;;;;;;;;5003474;28;1548;-65
2021/01/30 13:36:42;;;;;;;;;;;;;;;;;;4993124;28;1645;-65
2021/01/30 13:39:09;;;;;;;;;;;;;;;;;;5003567;28;2198;-63
2021/01/30 13:41:36;;;;;;;;;;;;;;;;;;5001770;28;2079;-66
2021/01/30 13:44:03;;;;;;;;;;;;;;;;;;4999114;28;2350;-63
2021/01/30 13:46:30;;;;;;;;;;;;;;;;;;4996850;28;1461;-64
2021/01/30 13:48:57;;;;;;;;;;;;;;;;;;4996862;28;1401;-64
2021/01/30 13:51:23;;;;;;;;;;;;;;;;;;4957259;28;11299;-63
2021/01/30 13:53:49;;;;;;;;;;;;;;;;;;5005183;28;1092;-63
2021/01/30 13:56:16;;;;;;;;;;;;;;;;;;5000762;28;1173;-62
2021/01/30 13:58:46;;;;;;;;;;;;;;;;;;5008409;28;1402;-63
2021/01/30 14:01:12;;;;;;;;;;;;;;;;;;5001131;28;1918;-64
2021/01/30 14:03:39;;;;;;;;;;;;;;;;;;5002888;28;1403;-63
2021/01/30 14:06:06;;;;;;;;;;;;;;;;;;5002446;28;1446;-63
2021/01/30 14:08:33;;;;;;;;;;;;;;;;;;5007287;28;2154;-64
2021/01/30 14:11:00;;;;;;;;;;;;;;;;;;5012008;28;1622;-64
2021/01/30 14:13:26;;;;;;;;;;;;;;;;;;5006968;28;1389;-64
2021/01/30 14:15:54;;;;;;;;;;;;;;;;;;5004007;28;1648;-64
2021/01/30 14:18:21;;;;;;;;;;;;;;;;;;4994660;28;1531;-64
2021/01/30 14:20:48;;;;;;;;;;;;;;;;;;5003312;28;1980;-64
2021/01/30 14:23:14;;;;;;;;;;;;;;;;;;5008787;28;1478;-64
2021/01/30 14:25:41;;;;;;;;;;;;;;;;;;5001837;28;1574;-65
2021/01/30 14:28:07;;;;;;;;;;;;;;;;;;5025561;28;1001;-63
2021/01/30 14:30:35;;;;;;;;;;;;;;;;;;4995404;28;1485;-64
2021/01/30 14:33:03;;;;;;;;;;;;;;;;;;4989198;28;1245;-64
2021/01/30 14:35:28;;;;;;;;;;;;;;;;;;4994816;28;1644;-64
2021/01/30 14:37:54;;;;;;;;;;;;;;;;;;4990091;28;1442;-64
2021/01/30 14:40:24;;;;;;;;;;;;;;;;;;4988095;28;2203;-63
2021/01/30 14:42:50;;;;;;;;;;;;;;;;;;5003497;28;1414;-64
2021/01/30 14:45:15;;;;;;;;;;;;;;;;;;4990463;28;1747;-64
2021/01/30 14:47:42;;;;;;;;;;;;;;;;;;4998650;28;1528;-64
2021/01/30 14:50:08;;;;;;;;;;;;;;;;;;4991959;28;1680;-63
2021/01/30 14:52:34;;;;;;;;;;;;;;;;;;4996552;28;2197;-64
2021/01/30 14:55:00;;;;;;;;;;;;;;;;;;4999591;28;1679;-64
2021/01/30 14:57:27;;;;;;;;;;;;;;;;;;5013497;28;1579;-64
2021/01/30 14:59:52;;;;;;;;;;;;;;;;;;4999234;28;1948;-64
2021/01/30 15:02:18;;;;;;;;;;;;;;;;;;4998453;28;1397;-64
2021/01/30 15:04:43;;;;;;;;;;;;;;;;;;5001720;28;1442;-65
2021/01/30 15:07:09;;;;;;;;;;;;;;;;;;5007185;28;1485;-64
2021/01/30 15:09:34;;;;;;;;;;;;;;;;;;5007855;28;1330;-64
2021/01/30 15:11:59;;;;;;;;;;;;;;;;;;4989972;28;1485;-64
2021/01/30 15:14:25;;;;;;;;;;;;;;;;;;4987685;28;1516;-63
2021/01/30 15:16:50;;;;;;;;;;;;;;;;;;4993170;28;1316;-64
2021/01/30 15:19:16;;;;;;;;;;;;;;;;;;5018854;28;2304;-65
2021/01/30 15:21:42;;;;;;;;;;;;;;;;;;5000038;28;1972;-63
2021/01/30 15:24:08;;;;;;;;;;;;;;;;;;5007096;28;1386;-64
2021/01/30 15:26:37;;;;;;;;;;;;;;;;;;5000084;28;1641;-64
2021/01/30 15:29:03;;;;;;;;;;;;;;;;;;5005448;28;1642;-64
2021/01/30 15:31:28;;;;;;;;;;;;;;;;;;4993377;28;867;-64
2021/01/30 15:33:53;;;;;;;;;;;;;;;;;;4988655;28;867;-64
2021/01/30 15:36:19;;;;;;;;;;;;;;;;;;4993598;28;1337;-64
2021/01/30 15:38:44;;;;;;;;;;;;;;;;;;5008348;28;1470;-64
2021/01/30 15:41:10;;;;;;;;;;;;;;;;;;4999440;28;1898;-64
2021/01/30 15:43:36;;;;;;;;;;;;;;;;;;5008319;28;855;-64
2021/01/30 15:46:04;;;;;;;;;;;;;;;;;;5006875;28;856;-63
2021/01/30 15:48:33;;;;;;;;;;;;;;;;;;5009141;28;879;-64
2021/01/30 15:50:59;;;;;;;;;;;;;;;;;;4998940;28;1428;-63
2021/01/30 15:53:25;;;;;;;;;;;;;;;;;;5006079;28;1445;-63
2021/01/30 15:55:53;;;;;;;;;;;;;;;;;;4994980;28;1609;-64
2021/01/30 15:58:22;;;;;;;;;;;;;;;;;;4988571;28;1492;-64
2021/01/30 16:00:49;;;;;;;;;;;;;;;;;;4998098;28;1985;-64
2021/01/30 16:03:14;;;;;;;;;;;;;;;;;;4999333;28;1378;-64
2021/01/30 16:05:39;;;;;;;;;;;;;;;;;;5002233;28;1627;-63
2021/01/30 16:08:05;;;;;;;;;;;;;;;;;;4992685;28;1474;-62
2021/01/30 16:10:30;;;;;;;;;;;;;;;;;;5003880;28;1409;-63
2021/01/30 16:12:55;;;;;;;;;;;;;;;;;;4997212;28;1659;-63
2021/01/30 16:15:22;;;;;;;;;;;;;;;;;;4997883;28;1519;-64
2021/01/30 16:17:47;;;;;;;;;;;;;;;;;;5004867;28;1489;-64
2021/01/30 16:20:14;;;;;;;;;;;;;;;;;;4990262;28;1910;-66
2021/01/30 16:22:39;;;;;;;;;;;;;;;;;;5003752;28;1467;-64
2021/01/30 16:25:05;;;;;;;;;;;;;;;;;;5000810;28;1496;-64
2021/01/30 16:27:31;;;;;;;;;;;;;;;;;;4990913;28;1477;-65
2021/01/30 16:29:56;;;;;;;;;;;;;;;;;;4992227;28;1469;-65
2021/01/30 16:32:21;;;;;;;;;;;;;;;;;;5001495;28;1399;-64
2021/01/30 16:34:47;;;;;;;;;;;;;;;;;;4988774;28;1438;-66
2021/01/30 16:37:14;;;;;;;;;;;;;;;;;;5005252;28;1514;-67
2021/01/30 16:39:43;;;;;;;;;;;;;;;;;;4991914;28;1989;-67
2021/01/30 16:42:08;;;;;;;;;;;;;;;;;;5006781;28;1140;-69
2021/01/30 16:44:34;;;;;;;;;;;;;;;;;;4990931;28;1736;-65
2021/01/30 16:46:59;;;;;;;;;;;;;;;;;;5002094;28;1592;-64
2021/01/30 16:49:25;;;;;;;;;;;;;;;;;;4993688;28;1539;-65
2021/01/30 16:51:50;;;;;;;;;;;;;;;;;;4991313;28;1430;-65
2021/01/30 16:54:15;;;;;;;;;;;;;;;;;;5001788;28;1629;-66
2021/01/30 16:56:41;;;;;;;;;;;;;;;;;;5000567;28;1553;-66
2021/01/30 16:59:06;;;;;;;;;;;;;;;;;;5001154;28;1521;-66
2021/01/30 17:01:31;;;;;;;;;;;;;;;;;;4993099;28;1985;-65
2021/01/30 17:03:57;;;;;;;;;;;;;;;;;;5005521;28;1599;-65
2021/01/30 17:06:23;;;;;;;;;;;;;;;;;;4992992;28;1409;-65
2021/01/30 17:08:48;;;;;;;;;;;;;;;;;;5001478;28;1386;-65
2021/01/30 17:11:13;;;;;;;;;;;;;;;;;;4997037;28;1240;-68
2021/01/30 17:13:39;;;;;;;;;;;;;;;;;;5005645;28;1684;-66
2021/01/30 17:16:07;;;;;;;;;;;;;;;;;;5004670;28;1474;-66